createdAt,value
2019-02-09T00:03:29.344Z,97037.03
2019-02-09T00:05:57.485Z,97032.34
2019-02-09T00:08:25.647Z,97033.33
2019-02-09T00:11:12.869Z,97025.59
2019-02-09T00:13:41.029Z,97031.58
2019-02-09T00:16:09.170Z,97020.80
2019-02-09T00:18:37.292Z,97016.32
2019-02-09T00:21:05.460Z,97011.82
2019-02-09T00:23:33.601Z,97015.09
2019-02-09T00:26:01.760Z,97021.53
2019-02-09T00:28:29.900Z,97024.22
2019-02-09T00:30:58.050Z,97025.23
2019-02-09T00:33:26.211Z,97025.89
2019-02-09T00:35:54.352Z,97026.69
2019-02-09T00:38:22.513Z,97025.89
2019-02-09T00:40:50.644Z,97033.52
2019-02-09T00:43:18.789Z,97039.22
2019-02-09T00:45:46.922Z,97033.52
2019-02-09T00:48:15.085Z,97027.67
2019-02-09T00:50:43.216Z,97022.84
2019-02-09T00:53:11.358Z,97024.52
2019-02-09T00:55:39.504Z,97022.05
2019-02-09T00:58:07.640Z,97036.36
2019-02-09T01:00:35.815Z,97019.36
2019-02-09T01:03:03.954Z,97021.83
2019-02-09T01:05:33.122Z,97032.58
2019-02-09T01:08:01.267Z,97032.33
2019-02-09T01:10:29.935Z,97026.95
2019-02-09T01:12:58.080Z,97013.07
2019-02-09T01:15:26.226Z,97017.10
2019-02-09T01:17:54.389Z,97003.55
2019-02-09T01:20:22.901Z,97007.26
2019-02-09T01:22:51.475Z,97005.77
2019-02-09T01:25:19.641Z,97009.37
2019-02-09T01:27:47.769Z,97009.00
2019-02-09T01:30:17.038Z,97003.84
2019-02-09T01:32:45.185Z,97010.24
2019-02-09T01:35:13.565Z,97003.05
2019-02-09T01:37:41.705Z,96998.03
2019-02-09T01:40:10.545Z,96997.13
2019-02-09T01:42:38.729Z,96990.19
2019-02-09T01:45:25.944Z,96985.22
2019-02-09T01:47:54.296Z,96986.38
2019-02-09T01:50:22.469Z,96986.16
2019-02-09T01:52:50.639Z,96978.97
2019-02-09T01:55:18.744Z,96982.56
2019-02-09T01:57:46.889Z,96982.56
2019-02-09T02:00:16.088Z,96987.25
2019-02-09T02:02:44.253Z,96987.03
2019-02-09T02:05:12.407Z,96985.14
2019-02-09T02:07:40.570Z,96988.05
2019-02-09T02:10:10.442Z,96981.84
2019-02-09T02:12:38.581Z,96977.27
2019-02-09T02:15:08.029Z,96976.72
2019-02-09T02:17:36.177Z,96987.14
2019-02-09T02:20:04.756Z,96973.34
2019-02-09T02:22:32.921Z,96965.28
2019-02-09T02:25:01.086Z,96962.81
2019-02-09T02:27:29.237Z,96959.91
2019-02-09T02:29:57.369Z,96961.94
2019-02-09T02:32:25.522Z,96951.59
2019-02-09T02:34:53.666Z,96957.41
2019-02-09T02:37:21.817Z,96959.87
2019-02-09T02:39:49.957Z,96958.20
2019-02-09T02:42:18.125Z,96949.02
2019-02-09T02:44:46.273Z,96952.25
2019-02-09T02:47:14.403Z,96941.06
2019-02-09T02:49:42.554Z,96944.52
2019-02-09T02:52:10.687Z,96940.73
2019-02-09T02:54:38.862Z,96887.39
2019-02-09T02:57:06.991Z,96931.98
2019-02-09T02:59:35.157Z,96930.53
2019-02-09T03:02:03.313Z,96924.94
2019-02-09T03:04:31.478Z,96913.36
2019-02-09T03:06:59.640Z,96914.05
2019-02-09T03:09:27.776Z,96910.16
2019-02-09T03:11:55.937Z,96912.16
2019-02-09T03:14:24.085Z,96912.48
2019-02-09T03:16:52.232Z,96903.74
2019-02-09T03:19:20.378Z,96866.88
2019-02-09T03:21:48.522Z,96906.54
2019-02-09T03:24:16.676Z,96909.91
2019-02-09T03:26:44.844Z,96915.50
2019-02-09T03:29:12.976Z,96913.61
2019-02-09T03:31:41.147Z,96906.90
2019-02-09T03:34:09.285Z,96911.58
2019-02-09T03:36:37.442Z,96899.82
2019-02-09T03:39:07.280Z,96902.04
2019-02-09T03:41:35.463Z,96907.96
2019-02-09T03:44:03.623Z,96905.88
2019-02-09T03:46:31.762Z,96902.04
2019-02-09T03:48:59.905Z,96892.09
2019-02-09T03:51:28.054Z,96889.48
2019-02-09T03:53:56.190Z,96893.77
2019-02-09T03:56:24.324Z,96883.70
2019-02-09T03:58:52.473Z,96882.22
2019-02-09T04:01:20.640Z,96873.83
2019-02-09T04:03:48.800Z,96867.33
2019-02-09T04:06:16.943Z,96867.91
2019-02-09T04:08:45.125Z,96873.03
2019-02-09T04:11:13.257Z,96875.97
2019-02-09T04:14:00.501Z,96869.25
2019-02-09T04:16:28.636Z,96878.98
2019-02-09T04:19:15.856Z,96867.30
2019-02-09T04:21:46.255Z,96867.99
2019-02-09T04:24:14.417Z,96872.45
2019-02-09T04:26:42.555Z,96871.91
2019-02-09T04:29:10.749Z,96875.28
2019-02-09T04:31:38.888Z,96869.44
2019-02-09T04:34:07.019Z,96879.86
2019-02-09T04:39:22.305Z,96878.63
2019-02-09T04:41:50.444Z,96889.13
2019-02-09T04:44:18.581Z,96883.75
2019-02-09T04:46:46.735Z,96887.02
2019-02-09T04:49:14.872Z,96886.69
2019-02-09T04:51:43.039Z,96886.44
2019-02-09T04:54:11.173Z,96887.75
2019-02-09T04:56:39.351Z,96883.86
2019-02-09T04:59:07.492Z,96890.25
2019-02-09T05:01:35.647Z,96898.09
2019-02-09T05:06:50.950Z,96895.73
2019-02-09T05:09:19.081Z,96885.42
2019-02-09T05:11:47.235Z,96894.02
2019-02-09T05:14:15.375Z,96902.30
2019-02-09T05:16:43.527Z,96912.25
2019-02-09T05:19:11.688Z,96914.72
2019-02-09T05:21:39.813Z,96914.20
2019-02-09T05:24:07.952Z,96917.30
2019-02-09T05:26:36.104Z,96926.84
2019-02-09T05:29:04.233Z,96942.73
2019-02-09T05:34:06.327Z,96960.52
2019-02-09T05:36:34.462Z,96971.27
2019-02-09T05:41:36.081Z,96975.48
2019-02-09T05:44:04.272Z,96967.20
2019-02-09T05:46:32.401Z,96956.45
2019-02-09T05:49:00.561Z,96971.77
2019-02-09T05:51:28.702Z,96985.67
2019-02-09T05:53:56.868Z,96984.33
2019-02-09T05:58:59.062Z,96987.02
2019-02-09T06:01:31.969Z,96995.62
2019-02-09T06:03:57.069Z,96999.65
2019-02-09T06:06:25.195Z,96993.26
2019-02-09T06:09:12.421Z,96987.09
2019-02-09T06:11:40.543Z,96997.06
2019-02-09T06:14:08.715Z,97006.47
2019-02-09T06:16:36.845Z,97007.23
2019-02-09T06:19:04.984Z,97011.59
2019-02-09T06:21:33.118Z,97012.70
2019-02-09T06:24:01.254Z,97024.35
2019-02-09T06:26:29.402Z,97025.34
2019-02-09T06:28:57.533Z,97032.41
2019-02-09T06:31:25.692Z,97029.30
2019-02-09T06:33:53.825Z,97030.16
2019-02-09T06:36:41.098Z,97022.66
2019-02-09T06:39:09.232Z,97031.06
2019-02-09T06:41:37.375Z,97025.70
2019-02-09T06:44:05.513Z,97027.70
2019-02-09T06:46:33.658Z,97020.55
2019-02-09T06:49:01.798Z,97013.68
2019-02-09T06:51:29.946Z,97016.36
2019-02-09T06:53:58.110Z,97027.20
2019-02-09T06:56:26.253Z,97023.08
2019-02-09T06:58:54.444Z,96931.78
2019-02-09T07:01:22.559Z,97028.13
2019-02-09T07:07:02.719Z,97043.70
2019-02-09T07:09:30.869Z,97048.05
2019-02-09T07:11:58.992Z,97054.98
2019-02-09T07:14:27.147Z,97054.76
2019-02-09T07:17:14.369Z,97055.68
2019-02-09T07:19:42.512Z,97051.27
2019-02-09T07:22:10.662Z,97052.08
2019-02-09T07:24:38.879Z,97061.00
2019-02-09T07:27:07.019Z,97056.20
2019-02-09T07:29:35.185Z,97058.56
2019-02-09T07:32:03.331Z,97064.38
2019-02-09T07:34:31.502Z,97063.46
2019-02-09T07:36:59.666Z,97069.85
2019-02-09T07:39:27.824Z,97071.99
2019-02-09T07:41:55.974Z,97077.48
2019-02-09T07:44:24.113Z,97074.91
2019-02-09T07:46:52.248Z,97083.83
2019-02-09T07:49:20.397Z,97007.02
2019-02-09T07:51:48.542Z,97092.68
2019-02-09T07:54:16.706Z,97094.24
2019-02-09T07:56:44.834Z,97090.47
2019-02-09T07:59:31.908Z,97093.48
2019-02-09T08:02:04.617Z,97097.50
2019-02-09T08:04:29.850Z,97099.67
2019-02-09T08:06:57.978Z,97090.22
2019-02-09T08:12:13.232Z,97087.05
2019-02-09T08:15:00.343Z,97088.06
2019-02-09T08:17:28.435Z,97084.91
2019-02-09T08:19:56.581Z,97078.39
2019-02-09T08:22:24.736Z,97087.14
2019-02-09T08:24:52.886Z,97086.52
2019-02-09T08:27:23.672Z,97092.42
2019-02-09T08:29:50.864Z,97088.66
2019-02-09T08:32:18.999Z,97097.73
2019-02-09T08:34:47.136Z,97096.00
2019-02-09T08:37:15.328Z,97086.08
2019-02-09T08:39:43.469Z,97088.06
2019-02-09T08:42:11.604Z,97088.56
2019-02-09T08:44:39.741Z,97086.20
2019-02-09T08:47:07.894Z,97085.55
2019-02-09T08:49:36.049Z,97089.68
2019-02-09T08:52:04.197Z,97078.94
2019-02-09T08:54:51.278Z,97084.25
2019-02-09T08:57:19.438Z,97079.26
2019-02-09T08:59:47.572Z,97079.58
2019-02-09T09:02:20.377Z,97078.56
2019-02-09T09:04:45.552Z,97077.00
2019-02-09T09:07:13.716Z,97073.52
2019-02-09T09:09:41.853Z,97075.40
2019-02-09T09:12:09.989Z,97077.70
2019-02-09T09:14:38.131Z,97081.47
2019-02-09T09:17:06.291Z,97091.67
2019-02-09T09:19:34.442Z,97097.36
2019-02-09T09:22:02.584Z,97101.56
2019-02-09T09:24:49.814Z,97109.61
2019-02-09T09:27:17.957Z,97105.36
2019-02-09T09:30:06.944Z,97104.45
2019-02-09T09:32:35.030Z,97116.70
2019-02-09T09:35:03.164Z,97113.05
2019-02-09T09:37:31.318Z,97110.73
2019-02-09T09:39:59.459Z,97113.91
2019-02-09T09:42:27.625Z,97109.88
2019-02-09T09:44:55.756Z,97113.63
2019-02-09T09:47:23.900Z,97115.30
2019-02-09T09:49:52.031Z,97119.28
2019-02-09T09:52:20.300Z,97126.65
2019-02-09T09:54:48.439Z,97126.80
2019-02-09T09:57:16.633Z,97136.05
2019-02-09T10:02:36.515Z,97126.92
2019-02-09T10:05:01.759Z,97135.78
2019-02-09T10:07:29.917Z,97133.25
2019-02-09T10:09:58.051Z,97136.85
2019-02-09T10:12:45.217Z,97140.41
2019-02-09T10:15:33.234Z,97146.80
2019-02-09T10:18:01.381Z,97137.72
2019-02-09T10:20:29.521Z,97141.48
2019-02-09T10:22:57.662Z,97145.34
2019-02-09T10:25:25.866Z,97141.30
2019-02-09T10:27:54.004Z,97149.97
2019-02-09T10:30:23.130Z,97151.95
2019-02-09T10:32:51.574Z,97155.23
2019-02-09T10:35:19.886Z,97144.64
2019-02-09T10:37:48.016Z,97143.84
2019-02-09T10:40:17.462Z,97139.04
2019-02-09T10:42:46.273Z,97136.90
2019-02-09T10:48:26.113Z,97152.80
2019-02-09T10:50:54.265Z,97155.44
2019-02-09T10:53:22.404Z,97149.12
2019-02-09T10:55:50.539Z,97143.31
2019-02-09T10:58:18.692Z,97149.16
2019-02-09T11:00:48.066Z,97155.88
2019-02-09T11:03:16.201Z,97155.88
2019-02-09T11:08:31.581Z,97162.77
2019-02-09T11:10:59.721Z,97161.48
2019-02-09T11:13:27.853Z,97152.58
2019-02-09T11:15:55.975Z,97152.28
2019-02-09T11:18:24.125Z,97159.00
2019-02-09T11:20:52.271Z,97160.66
2019-02-09T11:23:20.420Z,97161.54
2019-02-09T11:26:07.683Z,97151.33
2019-02-09T11:28:35.841Z,97165.94
2019-02-09T11:31:03.968Z,97158.62
2019-02-09T11:33:32.129Z,97154.98
2019-02-09T11:36:00.271Z,97160.69
2019-02-09T11:38:28.404Z,97160.24
2019-02-09T11:40:56.544Z,97158.10
2019-02-09T11:43:24.698Z,97150.95
2019-02-09T11:45:52.855Z,97151.42
2019-02-09T11:48:20.994Z,97158.14
2019-02-09T11:50:49.152Z,97158.41
2019-02-09T11:53:17.322Z,97155.45
2019-02-09T11:55:45.470Z,97153.46
2019-02-09T11:58:13.600Z,97160.28
2019-02-09T12:00:46.085Z,97169.55
2019-02-09T12:03:16.104Z,97155.41
2019-02-09T12:05:44.051Z,97150.03
2019-02-09T12:08:12.196Z,97141.31
2019-02-09T12:10:40.349Z,97142.34
2019-02-09T12:13:08.497Z,97135.02
2019-02-09T12:15:36.648Z,97141.75
2019-02-09T12:18:05.399Z,97142.63
2019-02-09T12:20:33.555Z,97140.95
2019-02-09T12:23:01.696Z,97138.36
2019-02-09T12:25:30.715Z,97149.52
2019-02-09T12:27:58.877Z,97138.91
2019-02-09T12:30:27.677Z,97138.98
2019-02-09T12:32:55.819Z,97132.41
2019-02-09T12:35:23.948Z,97133.61
2019-02-09T12:37:52.125Z,97126.34
2019-02-09T12:40:21.297Z,97127.94
2019-02-09T12:42:49.837Z,97113.73
2019-02-09T12:45:18.332Z,97112.83
2019-02-09T12:47:46.508Z,97112.25
2019-02-09T12:50:14.796Z,97110.83
2019-02-09T12:52:43.015Z,97110.53
2019-02-09T12:55:11.563Z,97112.39
2019-02-09T12:57:39.703Z,97118.75
2019-02-09T13:00:09.626Z,97123.91
2019-02-09T13:02:37.803Z,97116.61
2019-02-09T13:05:05.949Z,97120.09
2019-02-09T13:07:34.103Z,97117.26
2019-02-09T13:10:02.250Z,97114.72
2019-02-09T13:12:30.383Z,97116.80
2019-02-09T13:14:58.533Z,97121.38
2019-02-09T13:17:26.664Z,97113.19
2019-02-09T13:19:54.837Z,97109.38
2019-02-09T13:22:22.979Z,97114.06
2019-02-09T13:24:51.135Z,97117.66
2019-02-09T13:27:19.301Z,97125.69
2019-02-09T13:29:47.433Z,97125.61
2019-02-09T13:32:15.599Z,97124.97
2019-02-09T13:34:43.744Z,97128.34
2019-02-09T13:37:11.913Z,97128.56
2019-02-09T13:39:40.070Z,97123.05
2019-02-09T13:42:08.203Z,97114.47
2019-02-09T13:44:36.348Z,97117.81
2019-02-09T13:47:04.489Z,97123.73
2019-02-09T13:49:32.654Z,97127.50
2019-02-09T13:52:00.811Z,97124.17
2019-02-09T13:54:28.977Z,97124.45
2019-02-09T13:56:57.139Z,97123.80
2019-02-09T13:59:25.282Z,97125.39
2019-02-09T14:01:53.434Z,97123.18
2019-02-09T14:04:21.565Z,97118.34
2019-02-09T14:06:49.830Z,97125.17
2019-02-09T14:09:18.114Z,97123.28
2019-02-09T14:11:46.483Z,97125.07
2019-02-09T14:14:14.633Z,97122.70
2019-02-09T14:16:42.782Z,97124.92
2019-02-09T14:19:10.944Z,97128.95
2019-02-09T14:21:39.126Z,97122.70
2019-02-09T14:24:07.266Z,97117.58
2019-02-09T14:26:35.391Z,97121.69
2019-02-09T14:29:03.536Z,97122.91
2019-02-09T14:31:31.679Z,97128.88
2019-02-09T14:33:59.886Z,97141.52
2019-02-09T14:36:28.011Z,97142.50
2019-02-09T14:38:56.153Z,97136.80
2019-02-09T14:41:25.293Z,97140.83
2019-02-09T14:43:53.481Z,97147.80
2019-02-09T14:46:21.621Z,97152.05
2019-02-09T14:48:49.761Z,97154.27
2019-02-09T14:51:17.892Z,97156.19
2019-02-09T14:53:46.052Z,97157.61
2019-02-09T14:56:14.187Z,97145.28
2019-02-09T14:58:42.329Z,97154.00
2019-02-09T15:01:10.468Z,97156.58
2019-02-09T15:03:38.604Z,97153.89
2019-02-09T15:06:06.761Z,97153.52
2019-02-09T15:08:34.918Z,97153.45
2019-02-09T15:11:03.072Z,97154.27
2019-02-09T15:13:31.217Z,97156.58
2019-02-09T15:16:01.785Z,97171.37
2019-02-09T15:18:29.926Z,97165.99
2019-02-09T15:20:58.961Z,97161.27
2019-02-09T15:23:27.133Z,97166.64
2019-02-09T15:25:55.285Z,97161.09
2019-02-09T15:28:23.434Z,97165.30
2019-02-09T15:30:51.637Z,97173.23
2019-02-09T15:33:19.811Z,97169.84
2019-02-09T15:35:47.934Z,97171.41
2019-02-09T15:38:16.076Z,97178.94
2019-02-09T15:40:44.225Z,97183.61
2019-02-09T15:43:12.381Z,97181.94
2019-02-09T15:45:40.527Z,97181.89
2019-02-09T15:48:08.675Z,97184.16
2019-02-09T15:50:36.843Z,97187.54
2019-02-09T15:53:05.033Z,97189.05
2019-02-09T15:55:33.164Z,97182.44
2019-02-09T15:58:01.323Z,97182.63
2019-02-09T16:00:29.463Z,97183.33
2019-02-09T16:02:57.628Z,97180.87
2019-02-09T16:05:25.810Z,97186.24
2019-02-09T16:07:53.967Z,97182.98
2019-02-09T16:10:22.128Z,97182.33
2019-02-09T16:12:50.397Z,97189.37
2019-02-09T16:15:19.609Z,97183.08
2019-02-09T16:17:47.757Z,97194.08
2019-02-09T16:20:16.765Z,97192.80
2019-02-09T16:22:44.888Z,97199.30
2019-02-09T16:25:13.029Z,97201.56
2019-02-09T16:27:41.208Z,97207.58
2019-02-09T16:30:10.375Z,97201.19
2019-02-09T16:32:38.520Z,97208.16
2019-02-09T16:35:07.806Z,97209.72
2019-02-09T16:37:35.931Z,97212.19
2019-02-09T16:40:04.116Z,97213.05
2019-02-09T16:42:32.259Z,97210.14
2019-02-09T16:45:00.408Z,97221.91
2019-02-09T16:47:28.566Z,97215.42
2019-02-09T16:49:56.696Z,97213.53
2019-02-09T16:52:24.887Z,97212.51
2019-02-09T16:54:53.030Z,97214.62
2019-02-09T16:57:21.192Z,97219.99
2019-02-09T16:59:49.341Z,97221.91
2019-02-09T17:02:17.489Z,97221.53
2019-02-09T17:04:45.620Z,97224.66
2019-02-09T17:07:13.799Z,97230.52
2019-02-09T17:09:41.966Z,97227.35
2019-02-09T17:12:10.115Z,97228.70
2019-02-09T17:14:38.288Z,97230.30
2019-02-09T17:17:06.498Z,97234.00
2019-02-09T17:19:34.639Z,97238.36
2019-02-09T17:22:02.798Z,97237.39
2019-02-09T17:24:30.929Z,97235.28
2019-02-09T17:26:59.077Z,97245.01
2019-02-09T17:29:27.277Z,97244.43
2019-02-09T17:31:55.420Z,97243.89
2019-02-09T17:34:23.564Z,97248.14
2019-02-09T17:36:51.733Z,97243.98
2019-02-09T17:39:19.869Z,97243.98
2019-02-09T17:41:48.000Z,97242.31
2019-02-09T17:44:16.173Z,97232.66
2019-02-09T17:46:44.303Z,97233.30
2019-02-09T17:49:12.469Z,97240.02
2019-02-09T17:51:40.607Z,97238.84
2019-02-09T17:54:08.749Z,97239.38
2019-02-09T17:56:37.189Z,97240.98
2019-02-09T17:59:05.342Z,97252.05
2019-02-09T18:01:33.480Z,97246.98
2019-02-09T18:04:01.655Z,97247.21
2019-02-09T18:06:29.808Z,97244.53
2019-02-09T18:08:57.957Z,97246.41
2019-02-09T18:11:26.091Z,97240.59
2019-02-09T18:13:54.241Z,97242.38
2019-02-09T18:16:22.460Z,97240.59
2019-02-09T18:18:50.605Z,97240.59
2019-02-09T18:21:18.740Z,97241.04
2019-02-09T18:23:46.892Z,97242.48
2019-02-09T18:26:15.044Z,97243.34
2019-02-09T18:28:43.203Z,97248.87
2019-02-09T18:31:11.337Z,97248.08
2019-02-09T18:33:39.464Z,97248.97
2019-02-09T18:36:07.642Z,97255.91
2019-02-09T18:38:35.776Z,97257.48
2019-02-09T18:41:03.948Z,97250.54
2019-02-09T18:43:32.092Z,97254.80
2019-02-09T18:46:00.776Z,97251.88
2019-02-09T18:48:28.965Z,97243.82
2019-02-09T18:50:57.213Z,97248.72
2019-02-09T18:53:25.351Z,97253.06
2019-02-09T18:55:53.488Z,97249.83
2019-02-09T18:58:21.648Z,97252.30
2019-02-09T19:00:49.794Z,97249.92
2019-02-09T19:03:17.949Z,97251.27
2019-02-09T19:05:46.110Z,97250.95
2019-02-09T19:08:14.248Z,97255.30
2019-02-09T19:10:42.388Z,97252.04
2019-02-09T19:13:10.557Z,97253.47
2019-02-09T19:15:38.802Z,97260.09
2019-02-09T19:18:07.260Z,97262.08
2019-02-09T19:20:36.760Z,97265.24
2019-02-09T19:23:04.958Z,97252.99
2019-02-09T19:25:33.089Z,97256.16
2019-02-09T19:28:01.238Z,97260.73
2019-02-09T19:30:29.376Z,97261.85
2019-02-09T19:32:57.532Z,97257.59
2019-02-09T19:35:25.661Z,97261.85
2019-02-09T19:37:54.103Z,97259.64
2019-02-09T19:40:22.430Z,97261.31
2019-02-09T19:42:50.579Z,97259.39
2019-02-09T19:45:22.494Z,97265.08
2019-02-09T19:47:50.669Z,97266.52
2019-02-09T19:50:18.821Z,97257.11
2019-02-09T19:52:47.081Z,97256.48
2019-02-09T19:55:16.391Z,97248.97
2019-02-09T19:57:44.534Z,97248.83
2019-02-09T20:00:17.172Z,97245.34
2019-02-09T20:02:45.333Z,97245.92
2019-02-09T20:05:19.729Z,97251.93
2019-02-09T20:07:43.305Z,97249.70
2019-02-09T20:10:12.254Z,97255.32
2019-02-09T20:12:40.385Z,97258.01
2019-02-09T20:15:09.299Z,97256.67
2019-02-09T20:17:37.447Z,97263.03
2019-02-09T20:20:06.042Z,97263.03
2019-02-09T20:22:35.673Z,97269.30
2019-02-09T20:25:04.730Z,97266.06
2019-02-09T20:27:36.091Z,97267.41
2019-02-09T20:30:05.807Z,97266.92
2019-02-09T20:32:33.944Z,97267.78
2019-02-09T20:35:02.122Z,97272.62
2019-02-09T20:37:30.253Z,97274.98
2019-02-09T20:39:58.402Z,97267.73
2019-02-09T20:42:26.549Z,97267.78
2019-02-09T20:44:54.708Z,97268.05
2019-02-09T20:47:22.881Z,97268.05
2019-02-09T20:49:51.068Z,97272.62
2019-02-09T20:52:19.204Z,97273.95
2019-02-09T20:54:47.334Z,97273.73
2019-02-09T20:57:15.473Z,97276.64
2019-02-09T20:59:43.655Z,97271.05
2019-02-09T21:02:11.793Z,97267.02
2019-02-09T21:04:39.924Z,97267.34
2019-02-09T21:07:08.098Z,97274.91
2019-02-09T21:09:36.235Z,97275.14
2019-02-09T21:12:04.486Z,97286.77
2019-02-09T21:14:32.666Z,97285.56
2019-02-09T21:17:00.813Z,97268.20
2019-02-09T21:19:28.945Z,97266.95
2019-02-09T21:21:57.105Z,97264.71
2019-02-09T21:24:25.253Z,97269.54
2019-02-09T21:26:53.413Z,97274.05
2019-02-09T21:29:21.573Z,97273.80
2019-02-09T21:31:49.700Z,97269.54
2019-02-09T21:34:17.865Z,97270.88
2019-02-09T21:36:45.997Z,97273.08
2019-02-09T21:39:14.160Z,97269.00
2019-02-09T21:41:42.286Z,97277.91
2019-02-09T21:44:10.493Z,97287.95
2019-02-09T21:46:38.675Z,97282.97
2019-02-09T21:49:06.807Z,97283.77
2019-02-09T21:51:34.963Z,97287.53
2019-02-09T21:54:03.135Z,97286.20
2019-02-09T21:56:31.257Z,97288.74
2019-02-09T21:58:59.402Z,97290.31
2019-02-09T22:01:27.641Z,97285.17
2019-02-09T22:03:55.844Z,97277.43
2019-02-09T22:06:23.959Z,97285.58
2019-02-09T22:08:52.092Z,97281.64
2019-02-09T22:11:20.279Z,97277.52
2019-02-09T22:13:48.363Z,97277.84
2019-02-09T22:16:16.499Z,97274.30
2019-02-09T22:18:44.712Z,97277.84
2019-02-09T22:21:13.014Z,97265.21
2019-02-09T22:23:41.236Z,97259.20
2019-02-09T22:26:13.176Z,97261.09
2019-02-09T22:28:39.198Z,97259.58
2019-02-09T22:31:07.547Z,97263.30
2019-02-09T22:33:35.682Z,97266.55
2019-02-09T22:36:03.840Z,97260.92
2019-02-09T22:38:31.968Z,97252.81
2019-02-09T22:41:00.113Z,97250.98
2019-02-09T22:43:28.294Z,97255.72
2019-02-09T22:45:56.441Z,97264.19
2019-02-09T22:48:24.592Z,97256.45
2019-02-09T22:50:52.745Z,97256.90
2019-02-09T22:53:20.882Z,97247.50
2019-02-09T22:55:49.060Z,97244.08
2019-02-09T22:58:17.202Z,97243.63
2019-02-09T23:00:52.518Z,97240.84
2019-02-09T23:03:22.116Z,97238.48
2019-02-09T23:06:09.159Z,97244.39
2019-02-09T23:08:37.289Z,97242.28
2019-02-09T23:11:05.419Z,97244.59
2019-02-09T23:13:33.564Z,97243.79
2019-02-09T23:16:01.700Z,97240.63
2019-02-09T23:18:29.848Z,97231.23
2019-02-09T23:20:57.967Z,97226.34
2019-02-09T23:23:26.104Z,97226.48
2019-02-09T23:25:54.966Z,97225.69
2019-02-09T23:28:23.337Z,97222.14
2019-02-09T23:30:51.503Z,97225.28
2019-02-09T23:33:19.673Z,97225.92
2019-02-09T23:35:47.821Z,97237.23
2019-02-09T23:38:16.002Z,97241.00
2019-02-09T23:40:44.144Z,97243.14
2019-02-09T23:43:12.272Z,97241.00
2019-02-09T23:45:40.434Z,97238.95
2019-02-09T23:48:08.610Z,97242.44
2019-02-09T23:50:36.769Z,97238.89
2019-02-09T23:53:04.925Z,97232.17
2019-02-09T23:55:33.089Z,97230.26
2019-02-09T23:58:01.268Z,97223.09
